Latest Coastal Weather Observations for Friendly Beaches

IDT60701

Issued at 10:12 pm EST Sunday 28 August 2016 (issued every 10 minutes, with the page automatically refreshed every 10 minutes)

About coastal observations | Map of coastal stations | Coastal observations for TAS | Marine services | Other Formats
Station Details ID: 092114 Name: FRIENDLY BEACHES Lat: -42.00 Lon: 148.28 Height: 55.0 m
Data from the previous 72 hours. | See also: Recent months at Friendly Beaches
Date/Time
EST
Temp
°C
Wind Pressure Rain since
9am
mm
Weather Cloud Vis
km
Sea
Height
m
Swell
Dir  Spd
kts
Gust
kts
hPa Trend Height
m
Period
s
Dir
28/10:00pm 3.8 W 4 5 1020.8 - 0.0 - - - - - - -
28/09:30pm 4.5 WNW 2 3 1020.4 - 0.0 - - - - - - -
28/09:00pm 7.0 CALM 0 0 1020.0 - 0.0 - - - - - - -
28/08:30pm 6.0 NW 1 2 1019.8 - 0.0 - - - - - - -
28/08:00pm 6.8 WNW 2 3 1019.3 - 0.0 - - - - - - -
28/07:30pm 6.3 NNW 3 4 1019.0 - 0.0 - - - - - - -
28/07:00pm 7.3 WNW 4 5 1018.8 - 0.0 - - - - - - -
28/06:30pm 7.6 WSW 4 4 1018.5 - 0.0 - - - - - - -
28/06:00pm 7.6 WSW 3 4 1018.1 - 0.0 - - - - - - -
28/05:30pm 8.9 SW 4 5 1017.5 - 0.0 - - - - - - -
28/05:00pm 10.6 WSW 4 5 1017.0 - 0.0 - - - - - - -
28/04:30pm 11.3 WSW 5 8 1016.9 - 0.0 - - - - - - -
28/04:00pm 11.7 SW 3 6 1016.7 - 0.0 - - - - - - -
28/03:30pm 11.6 SW 5 9 1016.6 - 0.0 - - - - - - -
28/03:00pm 12.3 SSW 5 9 1016.5 - 0.0 - - - - - - -
28/02:30pm 11.7 WSW 6 11 1016.4 - 0.0 - - - - - - -
28/02:00pm 11.9 WSW 6 12 1016.5 - 0.0 - - - - - - -
28/01:30pm 11.7 WSW 8 16 1016.3 - 0.0 - - - - - - -
28/01:00pm 11.8 WSW 7 15 1016.5 - 0.0 - - - - - - -
28/12:30pm 11.4 WSW 7 12 1016.7 - 0.0 - - - - - - -
28/12:00pm 10.3 WSW 8 13 1016.8 - 0.0 - - - - - - -
28/11:30am 10.7 WSW 8 16 1016.8 - 0.0 - - - - - - -
28/11:00am 9.7 SW 7 11 1017.0 - 0.0 - - - - - - -
28/10:30am 9.0 SW 11 18 1016.8 - 0.0 - - - - - - -
28/10:00am 10.5 SW 9 17 1016.4 - 0.0 - - - - - - -
28/09:30am 9.7 SW 10 16 1016.2 - 0.0 - - - - - - -
28/09:00am 8.9 SW 7 12 1015.9 - 0.0 - - - - - - -
28/08:30am 8.0 SW 6 9 1015.7 - 0.0 - - - - - - -
28/08:00am 7.3 SW 7 11 1015.0 - 0.0 - - - - - - -
28/07:30am 6.9 SW 8 13 1014.2 - 0.0 - - - - - - -
28/07:00am 6.9 SSW 10 16 1013.7 - 0.0 - - - - - - -
28/06:30am 7.0 SW 12 19 1012.8 - 0.0 - - - - - - -
28/06:00am 7.2 SW 11 18 1012.0 - 0.0 - - - - - - -
28/05:30am 7.4 SSW 9 17 1011.5 - 0.0 - - - - - - -
28/05:00am 7.8 SW 13 20 1010.7 - 0.0 - - - - - - -
28/04:30am 8.2 SW 12 21 1009.9 - 0.0 - - - - - - -
28/04:00am 8.9 SW 18 29 1008.9 - 0.0 - - - - - - -
28/03:59am 8.9 SW 17 29 1008.8 - 0.0 - - - - - - -
28/03:54am 9.5 SW 13 28 1008.7 - 0.0 - - - - - - -
28/03:30am 10.4 WSW 11 19 1007.6 - 0.0 - - - - - - -
28/03:00am 11.3 WSW 10 19 1007.3 - 0.0 - - - - - - -
28/02:30am 11.6 W 10 19 1006.5 - 0.0 - - - - - - -
28/02:00am 12.0 WNW 15 25 1005.9 - 0.0 - - - - - - -
28/01:30am 12.0 WNW 15 25 1005.3 - 0.0 - - - - - - -
28/01:00am 12.4 NW 15 33 1005.3 - 0.0 - - - - - - -
28/12:55am 12.4 WNW 15 33 1005.6 - 0.0 - - - - - - -
28/12:30am 12.4 NW 12 23 1005.9 - 0.0 - - - - - - -
28/12:00am 12.4 WNW 8 15 1006.0 - 0.0 - - - - - - -
 
Date/Time
EST
Temp
°C
Wind Pressure Rain since
9am
mm
Weather Cloud Vis
km
Sea
Height
m
Swell
Dir  Spd
kts
Gust
kts
hPa Trend Height
m
Period
s
Dir
27/11:30pm 12.6 NW 12 23 1006.1 - 0.0 - - - - - - -
27/11:00pm 12.6 NW 10 21 1006.1 - 0.0 - - - - - - -
27/10:30pm 12.6 NW 9 17 1006.9 - 0.0 - - - - - - -
27/10:00pm 12.6 NNW 13 23 1007.4 - 0.0 - - - - - - -
27/09:55pm 12.5 NNW 12 22 1007.5 - 0.0 - - - - - - -
27/09:30pm 11.9 NNW 4 11 1008.2 - 0.0 - - - - - - -
27/09:00pm 11.4 NNW 4 7 1009.1 - 0.0 - - - - - - -
27/08:30pm 11.8 NW 7 13 1009.3 - 0.0 - - - - - - -
27/08:00pm 11.8 NW 9 21 1009.4 - 0.0 - - - - - - -
27/07:30pm 11.9 WNW 10 19 1009.7 - 0.0 - - - - - - -
27/07:00pm 11.9 NW 9 19 1009.5 - 0.0 - - - - - - -
27/06:30pm 12.0 WNW 10 24 1009.5 - 0.0 - - - - - - -
27/06:00pm 12.3 NW 10 19 1009.4 - 0.0 - - - - - - -
27/05:30pm 12.5 NW 10 19 1009.6 - 0.0 - - - - - - -
27/05:00pm 12.9 WNW 11 23 1009.6 - 0.0 - - - - - - -
27/04:30pm 13.1 NW 10 22 1009.3 - 0.0 - - - - - - -
27/04:00pm 13.2 NW 10 19 1009.0 - 0.0 - - - - - - -
27/03:30pm 13.5 NW 9 19 1009.1 - 0.0 - - - - - - -
27/03:00pm 13.3 WNW 10 17 1009.4 - 0.0 - - - - - - -
27/02:30pm 13.2 NW 11 25 1009.5 - 0.0 - - - - - - -
27/02:00pm 13.4 NW 9 16 1009.8 - 0.0 - - - - - - -
27/01:30pm 13.5 NW 10 17 1010.2 - 0.0 - - - - - - -
27/01:00pm 14.0 NW 14 26 1010.4 - 0.0 - - - - - - -
27/12:30pm 14.6 WNW 14 21 1010.3 - 0.0 - - - - - - -
27/12:00pm 14.8 WNW 11 22 1010.8 - 0.0 - - - - - - -
27/11:30am 14.9 NW 11 19 1011.2 - 0.0 - - - - - - -
27/11:00am 14.9 NW 10 20 1011.8 - 0.0 - - - - - - -
27/10:30am 14.0 NW 12 22 1012.1 - 0.0 - - - - - - -
27/10:00am 13.6 NW 7 12 1012.2 - 0.0 - - - - - - -
27/09:30am 12.8 NW 9 15 1012.2 - 0.0 - - - - - - -
27/09:00am 11.7 NW 12 24 1012.5 - 0.0 - - - - - - -
27/08:30am 11.0 NW 13 24 1012.5 - 0.0 - - - - - - -
27/08:00am 10.7 NW 11 19 1012.4 - 0.0 - - - - - - -
27/07:30am 9.7 NW 11 19 1012.3 - 0.0 - - - - - - -
27/07:00am 9.6 W 12 24 1012.6 - 0.0 - - - - - - -
27/06:30am 9.0 WNW 9 15 1012.1 - 0.0 - - - - - - -
27/06:00am 8.2 WSW 5 9 1012.4 - 0.0 - - - - - - -
27/05:30am 8.9 WNW 11 19 1012.6 - 0.0 - - - - - - -
27/05:00am 8.8 W 8 14 1012.5 - 0.0 - - - - - - -
27/04:30am 9.0 WSW 9 15 1012.9 - 0.0 - - - - - - -
27/04:00am 7.8 W 4 8 1012.7 - 0.0 - - - - - - -
27/03:30am 7.3 WSW 3 5 1012.6 - 0.0 - - - - - - -
27/03:00am 7.3 W 1 4 1012.4 - 0.0 - - - - - - -
27/02:30am 8.0 NW 4 6 1012.8 - 0.0 - - - - - - -
27/02:00am 8.1 NW 4 6 1013.0 - 0.0 - - - - - - -
27/01:30am 8.6 NW 4 8 1013.2 - 0.0 - - - - - - -
27/01:00am 8.7 N 5 8 1013.4 - 0.0 - - - - - - -
27/12:30am 9.1 NNW 7 9 1013.6 - 0.0 - - - - - - -
27/12:00am 9.4 NW 5 9 1013.8 - 0.0 - - - - - - -
 
Date/Time
EST
Temp
°C
Wind Pressure Rain since
9am
mm
Weather Cloud Vis
km
Sea
Height
m
Swell
Dir  Spd
kts
Gust
kts
hPa Trend Height
m
Period
s
Dir
26/11:30pm 9.4 NNW 4 7 1013.8 - 0.0 - - - - - - -
26/11:00pm 10.0 NW 6 10 1013.7 - 0.0 - - - - - - -
26/10:30pm 10.0 NNW 5 11 1013.7 - 0.0 - - - - - - -
26/10:00pm 9.9 NW 6 9 1013.7 - 0.0 - - - - - - -
26/09:30pm 9.9 NW 5 10 1013.8 - 0.0 - - - - - - -
26/09:00pm 9.6 NW 4 7 1014.0 - 0.0 - - - - - - -
26/08:30pm 9.7 NW 4 6 1013.7 - 0.0 - - - - - - -
26/08:00pm 9.6 NW 4 5 1013.5 - 0.0 - - - - - - -
26/07:30pm 9.5 NW 4 5 1013.5 - 0.0 - - - - - - -
26/07:00pm 10.3 WNW 4 5 1013.3 - 0.0 - - - - - - -
26/06:30pm 10.7 WNW 4 6 1013.1 - 0.0 - - - - - - -
26/06:00pm 10.9 NW 4 5 1012.8 - 0.0 - - - - - - -
26/05:30pm 12.1 NW 4 7 1012.5 - 0.0 - - - - - - -
26/05:00pm 14.0 NW 4 6 1012.2 - 0.0 - - - - - - -
26/04:30pm 15.2 NW 2 5 1012.0 - 0.0 - - - - - - -
26/04:00pm 15.3 WSW 4 8 1012.0 - 0.0 - - - - - - -
26/03:30pm 15.2 WSW 5 8 1011.8 - 0.0 - - - - - - -
26/03:00pm 15.2 WSW 7 12 1012.0 - 0.0 - - - - - - -
26/02:30pm 15.3 WSW 6 13 1012.0 - 0.0 - - - - - - -
26/02:00pm 15.2 WSW 6 11 1012.2 - 0.0 - - - - - - -
26/01:30pm 14.3 W 6 12 1012.4 - 0.0 - - - - - - -
26/01:00pm 14.5 WSW 5 8 1012.6 - 0.0 - - - - - - -
26/12:30pm 14.3 NW 6 10 1012.9 - 0.0 - - - - - - -
26/12:00pm 14.1 NW 4 8 1013.3 - 0.0 - - - - - - -
26/11:30am 13.5 NNW 6 10 1013.6 - 0.0 - - - - - - -
26/11:00am 12.7 NW 5 12 1014.0 - 0.0 - - - - - - -
26/10:30am 11.9 NW 6 11 1014.2 - 0.0 - - - - - - -
26/10:00am 10.5 NW 6 9 1014.6 - 0.0 - - - - - - -
26/09:30am 9.2 WNW 4 8 1014.6 - 0.0 - - - - - - -
26/09:00am 7.5 WNW 2 3 1014.9 - 0.6 - - - - - - -
26/08:30am 6.5 WNW 2 4 1014.9 - 0.6 - - - - - - -
26/08:00am 4.4 NW 3 3 1014.8 - 0.6 - - - - - - -
26/07:30am 3.9 NW 2 3 1014.6 - 0.6 - - - - - - -
26/07:00am 2.6 NW 3 4 1014.4 - 0.6 - - - - - - -
26/06:30am 1.9 NW 3 4 1014.3 - 0.6 - - - - - - -
26/06:00am 1.9 NW 3 3 1014.1 - 0.6 - - - - - - -
26/05:30am 1.6 NW 4 4 1013.9 - 0.6 - - - - - - -
26/05:00am 2.0 WNW 5 6 1013.8 - 0.6 - - - - - - -
26/04:30am 3.5 WNW 4 6 1013.7 - 0.6 - - - - - - -
26/04:00am 3.1 WNW 6 6 1013.7 - 0.6 - - - - - - -
26/03:30am 3.8 W 5 6 1013.6 - 0.6 - - - - - - -
26/03:00am 2.8 WNW 6 8 1013.7 - 0.6 - - - - - - -
26/02:30am 3.7 W 5 6 1013.8 - 0.6 - - - - - - -
26/02:00am 4.0 W 4 7 1013.9 - 0.6 - - - - - - -
26/01:30am 4.1 W 5 6 1014.2 - 0.6 - - - - - - -
26/01:00am 4.3 W 4 5 1014.2 - 0.6 - - - - - - -
26/12:30am 4.5 WSW 4 5 1014.2 - 0.6 - - - - - - -
26/12:00am 4.5 W 4 5 1014.1 - 0.6 - - - - - - -
 
Date/Time
EST
Temp
°C
Wind Pressure Rain since
9am
mm
Weather Cloud Vis
km
Sea
Height
m
Swell
Dir  Spd
kts
Gust
kts
hPa Trend Height
m
Period
s
Dir
25/11:30pm 5.0 W 4 6 1014.0 - 0.6 - - - - - - -
25/11:00pm 5.3 W 5 6 1014.1 - 0.6 - - - - - - -
25/10:30pm 6.1 WNW 4 6 1014.2 - 0.6 - - - - - - -

Other Formats:

Comma delimited format used in spreadsheet applications
http://www.bom.gov.au/fwo/IDT60701/IDT60701.94987.axf

JavaScript Object Notation format (JSON) in row-major order
http://www.bom.gov.au/fwo/IDT60701/IDT60701.94987.json